sensor_id;sensor_type;location;lat;lon;timestamp;pressure;altitude;pressure_sealevel;temperature
48003;BMP280;33768;48.578;11.574;2022-07-09T00:02:41;97605.34;;;12.68
48003;BMP280;33768;48.578;11.574;2022-07-09T00:05:46;97601.09;;;12.67
48003;BMP280;33768;48.578;11.574;2022-07-09T00:08:50;97599.09;;;12.67
48003;BMP280;33768;48.578;11.574;2022-07-09T00:11:54;97600.38;;;12.66
48003;BMP280;33768;48.578;11.574;2022-07-09T00:14:58;97598.56;;;12.74
48003;BMP280;33768;48.578;11.574;2022-07-09T00:18:02;97603.56;;;12.76
48003;BMP280;33768;48.578;11.574;2022-07-09T00:21:06;97600.56;;;12.74
48003;BMP280;33768;48.578;11.574;2022-07-09T00:24:10;97594.09;;;12.71
48003;BMP280;33768;48.578;11.574;2022-07-09T00:27:15;97595.13;;;12.68
48003;BMP280;33768;48.578;11.574;2022-07-09T00:30:19;97588.16;;;12.67
48003;BMP280;33768;48.578;11.574;2022-07-09T00:33:23;97585.19;;;12.65
48003;BMP280;33768;48.578;11.574;2022-07-09T00:36:27;97582.97;;;12.64
48003;BMP280;33768;48.578;11.574;2022-07-09T00:39:31;97581.50;;;12.63
48003;BMP280;33768;48.578;11.574;2022-07-09T00:42:36;97581.50;;;12.63
48003;BMP280;33768;48.578;11.574;2022-07-09T00:45:40;97573.28;;;12.63
48003;BMP280;33768;48.578;11.574;2022-07-09T00:48:44;97573.53;;;12.59
48003;BMP280;33768;48.578;11.574;2022-07-09T00:51:48;97576.28;;;12.59
48003;BMP280;33768;48.578;11.574;2022-07-09T00:54:52;97579.06;;;12.54
48003;BMP280;33768;48.578;11.574;2022-07-09T00:57:58;97579.09;;;12.49
48003;BMP280;33768;48.578;11.574;2022-07-09T01:01:02;97579.16;;;12.43
48003;BMP280;33768;48.578;11.574;2022-07-09T01:04:06;97583.13;;;12.42
48003;BMP280;33768;48.578;11.574;2022-07-09T01:07:10;97567.03;;;12.33
48003;BMP280;33768;48.578;11.574;2022-07-09T01:10:15;97575.84;;;12.21
48003;BMP280;33768;48.578;11.574;2022-07-09T01:13:19;97569.66;;;12.15
48003;BMP280;33768;48.578;11.574;2022-07-09T01:16:31;97572.91;;;12.14
48003;BMP280;33768;48.578;11.574;2022-07-09T01:19:35;97560.94;;;12.17
48003;BMP280;33768;48.578;11.574;2022-07-09T01:22:39;97555.97;;;12.15
48003;BMP280;33768;48.578;11.574;2022-07-09T01:25:45;97555.97;;;12.15
48003;BMP280;33768;48.578;11.574;2022-07-09T01:28:49;97557.22;;;12.14
48003;BMP280;33768;48.578;11.574;2022-07-09T01:31:54;97546.00;;;12.18
48003;BMP280;33768;48.578;11.574;2022-07-09T01:34:58;97543.69;;;12.27
48003;BMP280;33768;48.578;11.574;2022-07-09T01:38:02;97553.81;;;12.37
48003;BMP280;33768;48.578;11.574;2022-07-09T01:41:06;97549.81;;;12.38
48003;BMP280;33768;48.578;11.574;2022-07-09T01:44:10;97543.31;;;12.41
48003;BMP280;33768;48.578;11.574;2022-07-09T01:47:14;97543.78;;;12.45
48003;BMP280;33768;48.578;11.574;2022-07-09T01:50:18;97547.28;;;12.46
48003;BMP280;33768;48.578;11.574;2022-07-09T01:53:22;97546.19;;;12.54
48003;BMP280;33768;48.578;11.574;2022-07-09T01:56:26;97536.44;;;12.58
48003;BMP280;33768;48.578;11.574;2022-07-09T01:59:30;97534.41;;;12.64
48003;BMP280;33768;48.578;11.574;2022-07-09T02:02:35;97538.63;;;12.65
48003;BMP280;33768;48.578;11.574;2022-07-09T02:05:39;97537.66;;;12.63
48003;BMP280;33768;48.578;11.574;2022-07-09T02:08:43;97534.44;;;12.59
48003;BMP280;33768;48.578;11.574;2022-07-09T02:11:48;97528.19;;;12.64
48003;BMP280;33768;48.578;11.574;2022-07-09T02:14:53;97535.94;;;12.60
48003;BMP280;33768;48.578;11.574;2022-07-09T02:17:57;97524.75;;;12.58
48003;BMP280;33768;48.578;11.574;2022-07-09T02:21:02;97532.44;;;12.59
48003;BMP280;33768;48.578;11.574;2022-07-09T02:24:08;97526.22;;;12.59
48003;BMP280;33768;48.578;11.574;2022-07-09T02:27:12;97521.78;;;12.56
48003;BMP280;33768;48.578;11.574;2022-07-09T02:30:16;97531.75;;;12.53
48003;BMP280;33768;48.578;11.574;2022-07-09T02:33:20;97523.84;;;12.50
48003;BMP280;33768;48.578;11.574;2022-07-09T02:36:25;97522.63;;;12.46
48003;BMP280;33768;48.578;11.574;2022-07-09T02:39:28;97526.59;;;12.45
48003;BMP280;33768;48.578;11.574;2022-07-09T02:42:33;97518.63;;;12.47
48003;BMP280;33768;48.578;11.574;2022-07-09T02:45:37;97513.09;;;12.52
48003;BMP280;33768;48.578;11.574;2022-07-09T02:48:41;97524.75;;;12.58
48003;BMP280;33768;48.578;11.574;2022-07-09T02:51:45;97518.19;;;12.66
48003;BMP280;33768;48.578;11.574;2022-07-09T02:54:49;97515.41;;;12.72
48003;BMP280;33768;48.578;11.574;2022-07-09T02:57:53;97525.59;;;12.77
48003;BMP280;33768;48.578;11.574;2022-07-09T03:00:58;97524.13;;;12.76
48003;BMP280;33768;48.578;11.574;2022-07-09T03:04:03;97524.13;;;12.76
48003;BMP280;33768;48.578;11.574;2022-07-09T03:07:08;97517.88;;;12.75
48003;BMP280;33768;48.578;11.574;2022-07-09T03:10:12;97525.31;;;12.80
48003;BMP280;33768;48.578;11.574;2022-07-09T03:13:16;97524.56;;;12.80
48003;BMP280;33768;48.578;11.574;2022-07-09T03:16:20;97532.22;;;12.86
48003;BMP280;33768;48.578;11.574;2022-07-09T03:19:24;97526.44;;;12.90
48003;BMP280;33768;48.578;11.574;2022-07-09T03:22:29;97520.38;;;12.97
48003;BMP280;33768;48.578;11.574;2022-07-09T03:25:33;97516.59;;;13.00
48003;BMP280;33768;48.578;11.574;2022-07-09T03:28:37;97520.56;;;13.04
48003;BMP280;33768;48.578;11.574;2022-07-09T03:31:42;97519.25;;;13.11
48003;BMP280;33768;48.578;11.574;2022-07-09T03:34:46;97516.28;;;13.09
48003;BMP280;33768;48.578;11.574;2022-07-09T03:37:50;97525.47;;;13.11
48003;BMP280;33768;48.578;11.574;2022-07-09T03:40:54;97524.44;;;13.14
48003;BMP280;33768;48.578;11.574;2022-07-09T03:43:59;97523.91;;;13.15
48003;BMP280;33768;48.578;11.574;2022-07-09T03:47:04;97521.91;;;13.16
48003;BMP280;33768;48.578;11.574;2022-07-09T03:50:08;97518.38;;;13.21
48003;BMP280;33768;48.578;11.574;2022-07-09T03:53:12;97520.06;;;13.24
48003;BMP280;33768;48.578;11.574;2022-07-09T03:56:17;97523.03;;;13.26
48003;BMP280;33768;48.578;11.574;2022-07-09T03:59:21;97518.31;;;13.26
48003;BMP280;33768;48.578;11.574;2022-07-09T04:02:25;97533.72;;;13.29
48003;BMP280;33768;48.578;11.574;2022-07-09T04:05:29;97538.88;;;13.33
48003;BMP280;33768;48.578;11.574;2022-07-09T04:08:34;97533.63;;;13.35
48003;BMP280;33768;48.578;11.574;2022-07-09T04:11:38;97541.53;;;13.44
48003;BMP280;33768;48.578;11.574;2022-07-09T04:14:42;97542.19;;;13.49
48003;BMP280;33768;48.578;11.574;2022-07-09T04:17:46;97538.63;;;13.54
48003;BMP280;33768;48.578;11.574;2022-07-09T04:20:51;97541.28;;;13.60
48003;BMP280;33768;48.578;11.574;2022-07-09T04:23:56;97536.03;;;13.62
48003;BMP280;33768;48.578;11.574;2022-07-09T04:27:00;97546.28;;;13.61
48003;BMP280;33768;48.578;11.574;2022-07-09T04:30:06;97538.78;;;13.62
48003;BMP280;33768;48.578;11.574;2022-07-09T04:33:12;97546.50;;;13.63
48003;BMP280;33768;48.578;11.574;2022-07-09T04:36:17;97544.19;;;13.67
48003;BMP280;33768;48.578;11.574;2022-07-09T04:39:21;97554.03;;;13.75
48003;BMP280;33768;48.578;11.574;2022-07-09T04:42:28;97534.78;;;13.81
48003;BMP280;33768;48.578;11.574;2022-07-09T04:45:32;97546.91;;;13.85
48003;BMP280;33768;48.578;11.574;2022-07-09T04:48:38;97537.22;;;13.84
48003;BMP280;33768;48.578;11.574;2022-07-09T04:51:42;97531.88;;;13.92
48003;BMP280;33768;48.578;11.574;2022-07-09T04:54:46;97539.22;;;14.02
48003;BMP280;33768;48.578;11.574;2022-07-09T04:57:51;97536.72;;;14.04
48003;BMP280;33768;48.578;11.574;2022-07-09T05:00:54;97541.06;;;14.12
48003;BMP280;33768;48.578;11.574;2022-07-09T05:03:59;97543.84;;;14.25
48003;BMP280;33768;48.578;11.574;2022-07-09T05:07:03;97544.41;;;14.24
48003;BMP280;33768;48.578;11.574;2022-07-09T05:10:08;97548.47;;;14.17
48003;BMP280;33768;48.578;11.574;2022-07-09T05:13:13;97555.03;;;14.14
48003;BMP280;33768;48.578;11.574;2022-07-09T05:16:17;97548.69;;;14.19
48003;BMP280;33768;48.578;11.574;2022-07-09T05:19:21;97539.88;;;14.26
48003;BMP280;33768;48.578;11.574;2022-07-09T05:22:25;97547.47;;;14.33
48003;BMP280;33768;48.578;11.574;2022-07-09T05:25:30;97548.16;;;14.39
48003;BMP280;33768;48.578;11.574;2022-07-09T05:28:34;97553.53;;;14.44
48003;BMP280;33768;48.578;11.574;2022-07-09T05:31:38;97543.41;;;14.52
48003;BMP280;33768;48.578;11.574;2022-07-09T05:34:42;97546.38;;;14.54
48003;BMP280;33768;48.578;11.574;2022-07-09T05:37:46;97549.25;;;14.62
48003;BMP280;33768;48.578;11.574;2022-07-09T05:40:50;97556.34;;;14.70
48003;BMP280;33768;48.578;11.574;2022-07-09T05:43:55;97548.88;;;14.83
48003;BMP280;33768;48.578;11.574;2022-07-09T05:46:59;97552.91;;;14.95
48003;BMP280;33768;48.578;11.574;2022-07-09T05:50:03;97557.16;;;15.09
48003;BMP280;33768;48.578;11.574;2022-07-09T05:53:07;97551.66;;;15.22
48003;BMP280;33768;48.578;11.574;2022-07-09T05:56:11;97556.13;;;15.25
48003;BMP280;33768;48.578;11.574;2022-07-09T05:59:16;97552.53;;;15.30
48003;BMP280;33768;48.578;11.574;2022-07-09T06:02:20;97560.34;;;15.38
48003;BMP280;33768;48.578;11.574;2022-07-09T06:05:25;97548.78;;;15.53
48003;BMP280;33768;48.578;11.574;2022-07-09T06:08:29;97549.94;;;15.70
48003;BMP280;33768;48.578;11.574;2022-07-09T06:11:33;97552.31;;;15.86
48003;BMP280;33768;48.578;11.574;2022-07-09T06:14:38;97545.91;;;16.04
48003;BMP280;33768;48.578;11.574;2022-07-09T06:17:42;97537.09;;;16.18
48003;BMP280;33768;48.578;11.574;2022-07-09T06:20:46;97541.88;;;16.38
48003;BMP280;33768;48.578;11.574;2022-07-09T06:23:50;97546.19;;;16.46
48003;BMP280;33768;48.578;11.574;2022-07-09T06:26:54;97546.50;;;16.63
48003;BMP280;33768;48.578;11.574;2022-07-09T06:29:58;97536.47;;;16.73
48003;BMP280;33768;48.578;11.574;2022-07-09T06:33:03;97541.91;;;16.86
48003;BMP280;33768;48.578;11.574;2022-07-09T06:36:07;97538.53;;;17.00
48003;BMP280;33768;48.578;11.574;2022-07-09T06:39:11;97537.09;;;17.06
48003;BMP280;33768;48.578;11.574;2022-07-09T06:42:34;97539.72;;;17.39
48003;BMP280;33768;48.578;11.574;2022-07-09T06:45:45;97531.41;;;17.67
48003;BMP280;33768;48.578;11.574;2022-07-09T06:48:49;97531.44;;;17.82
48003;BMP280;33768;48.578;11.574;2022-07-09T06:51:54;97523.16;;;17.82
48003;BMP280;33768;48.578;11.574;2022-07-09T06:54:58;97528.72;;;17.96
48003;BMP280;33768;48.578;11.574;2022-07-09T06:58:02;97534.31;;;18.11
48003;BMP280;33768;48.578;11.574;2022-07-09T07:01:06;97520.56;;;18.33
48003;BMP280;33768;48.578;11.574;2022-07-09T07:04:10;97524.78;;;18.49
48003;BMP280;33768;48.578;11.574;2022-07-09T07:07:16;97515.22;;;18.50
48003;BMP280;33768;48.578;11.574;2022-07-09T07:10:20;97519.09;;;18.47
48003;BMP280;33768;48.578;11.574;2022-07-09T07:13:24;97520.75;;;18.57
48003;BMP280;33768;48.578;11.574;2022-07-09T07:16:28;97517.81;;;18.78
48003;BMP280;33768;48.578;11.574;2022-07-09T07:19:33;97519.81;;;19.07
48003;BMP280;33768;48.578;11.574;2022-07-09T07:22:37;97508.41;;;19.64
48003;BMP280;33768;48.578;11.574;2022-07-09T07:25:41;97510.41;;;20.17
48003;BMP280;33768;48.578;11.574;2022-07-09T07:28:45;97507.75;;;20.50
48003;BMP280;33768;48.578;11.574;2022-07-09T07:31:50;97488.06;;;20.87
48003;BMP280;33768;48.578;11.574;2022-07-09T07:34:54;97477.41;;;21.17
48003;BMP280;33768;48.578;11.574;2022-07-09T07:37:58;97478.44;;;21.72
48003;BMP280;33768;48.578;11.574;2022-07-09T07:41:05;97475.38;;;22.11
48003;BMP280;33768;48.578;11.574;2022-07-09T07:44:09;97476.72;;;22.90
48003;BMP280;33768;48.578;11.574;2022-07-09T07:47:13;97470.19;;;23.79
48003;BMP280;33768;48.578;11.574;2022-07-09T07:50:17;97471.50;;;24.46
48003;BMP280;33768;48.578;11.574;2022-07-09T07:53:22;97470.44;;;24.81
48003;BMP280;33768;48.578;11.574;2022-07-09T07:56:26;97466.38;;;25.23
48003;BMP280;33768;48.578;11.574;2022-07-09T07:59:31;97469.38;;;25.89
48003;BMP280;33768;48.578;11.574;2022-07-09T08:02:35;97464.22;;;26.17
48003;BMP280;33768;48.578;11.574;2022-07-09T08:05:39;97469.13;;;26.40
48003;BMP280;33768;48.578;11.574;2022-07-09T08:08:43;97475.72;;;26.44
48003;BMP280;33768;48.578;11.574;2022-07-09T08:11:47;97472.53;;;26.38
48003;BMP280;33768;48.578;11.574;2022-07-09T08:14:51;97475.34;;;26.61
48003;BMP280;33768;48.578;11.574;2022-07-09T08:17:56;97465.63;;;26.96
48003;BMP280;33768;48.578;11.574;2022-07-09T08:21:00;97475.88;;;26.80
48003;BMP280;33768;48.578;11.574;2022-07-09T08:24:04;97471.59;;;27.02
48003;BMP280;33768;48.578;11.574;2022-07-09T08:27:10;97459.50;;;27.94
48003;BMP280;33768;48.578;11.574;2022-07-09T08:30:14;97463.34;;;28.63
48003;BMP280;33768;48.578;11.574;2022-07-09T08:33:19;97466.91;;;29.03
48003;BMP280;33768;48.578;11.574;2022-07-09T08:36:23;97460.59;;;29.58
48003;BMP280;33768;48.578;11.574;2022-07-09T08:39:27;97452.78;;;29.69
48003;BMP280;33768;48.578;11.574;2022-07-09T08:42:31;97447.31;;;29.05
48003;BMP280;33768;48.578;11.574;2022-07-09T08:45:35;97452.88;;;29.16
48003;BMP280;33768;48.578;11.574;2022-07-09T08:48:40;97444.63;;;29.75
48003;BMP280;33768;48.578;11.574;2022-07-09T08:51:47;97447.66;;;29.66
48003;BMP280;33768;48.578;11.574;2022-07-09T08:54:53;97432.75;;;28.95
48003;BMP280;33768;48.578;11.574;2022-07-09T08:57:57;97437.13;;;28.85
48003;BMP280;33768;48.578;11.574;2022-07-09T09:01:02;97438.50;;;28.70
48003;BMP280;33768;48.578;11.574;2022-07-09T09:04:08;97432.41;;;28.36
48003;BMP280;33768;48.578;11.574;2022-07-09T09:07:16;97427.84;;;27.80
48003;BMP280;33768;48.578;11.574;2022-07-09T09:10:25;97431.16;;;27.76
48003;BMP280;33768;48.578;11.574;2022-07-09T09:13:30;97423.00;;;29.09
48003;BMP280;33768;48.578;11.574;2022-07-09T09:16:41;97411.63;;;29.91
48003;BMP280;33768;48.578;11.574;2022-07-09T09:19:46;97406.34;;;30.58
48003;BMP280;33768;48.578;11.574;2022-07-09T09:22:52;97411.50;;;30.63
48003;BMP280;33768;48.578;11.574;2022-07-09T09:29:16;97407.06;;;29.14
48003;BMP280;33768;48.578;11.574;2022-07-09T09:32:20;97398.22;;;28.79
48003;BMP280;33768;48.578;11.574;2022-07-09T09:35:26;97407.88;;;28.50
48003;BMP280;33768;48.578;11.574;2022-07-09T09:38:31;97396.91;;;28.16
48003;BMP280;33768;48.578;11.574;2022-07-09T09:41:35;97405.69;;;27.72
48003;BMP280;33768;48.578;11.574;2022-07-09T09:44:41;97400.13;;;27.61
48003;BMP280;33768;48.578;11.574;2022-07-09T09:47:50;97401.66;;;28.64
48003;BMP280;33768;48.578;11.574;2022-07-09T09:50:55;97377.94;;;30.37
48003;BMP280;33768;48.578;11.574;2022-07-09T09:54:02;97378.50;;;31.46
48003;BMP280;33768;48.578;11.574;2022-07-09T09:57:08;97375.03;;;31.65
48003;BMP280;33768;48.578;11.574;2022-07-09T10:00:14;97373.84;;;30.40
48003;BMP280;33768;48.578;11.574;2022-07-09T10:03:20;97377.16;;;29.20
48003;BMP280;33768;48.578;11.574;2022-07-09T10:06:24;97385.94;;;28.33
48003;BMP280;33768;48.578;11.574;2022-07-09T10:09:30;97387.75;;;27.53
48003;BMP280;33768;48.578;11.574;2022-07-09T10:12:35;97388.81;;;26.53
48003;BMP280;33768;48.578;11.574;2022-07-09T10:15:48;97392.28;;;25.86
48003;BMP280;33768;48.578;11.574;2022-07-09T10:18:53;97387.75;;;25.38
48003;BMP280;33768;48.578;11.574;2022-07-09T10:21:58;97383.50;;;25.16
48003;BMP280;33768;48.578;11.574;2022-07-09T10:25:02;97383.66;;;24.97
48003;BMP280;33768;48.578;11.574;2022-07-09T10:28:15;97373.44;;;24.81
48003;BMP280;33768;48.578;11.574;2022-07-09T10:31:20;97364.56;;;26.80
48003;BMP280;33768;48.578;11.574;2022-07-09T10:34:51;97358.75;;;27.48
48003;BMP280;33768;48.578;11.574;2022-07-09T10:37:57;97360.19;;;27.74
48003;BMP280;33768;48.578;11.574;2022-07-09T10:41:02;97359.50;;;27.87
48003;BMP280;33768;48.578;11.574;2022-07-09T10:44:07;97350.47;;;28.79
48003;BMP280;33768;48.578;11.574;2022-07-09T10:47:12;97342.66;;;30.05
48003;BMP280;33768;48.578;11.574;2022-07-09T10:50:16;97348.84;;;30.95
48003;BMP280;33768;48.578;11.574;2022-07-09T10:53:28;97338.03;;;31.91
48003;BMP280;33768;48.578;11.574;2022-07-09T10:56:34;97335.63;;;32.78
48003;BMP280;33768;48.578;11.574;2022-07-09T10:59:38;97330.19;;;32.65
48003;BMP280;33768;48.578;11.574;2022-07-09T11:02:54;97329.47;;;31.89
48003;BMP280;33768;48.578;11.574;2022-07-09T11:05:58;97334.41;;;31.37
48003;BMP280;33768;48.578;11.574;2022-07-09T11:09:14;97315.28;;;31.87
48003;BMP280;33768;48.578;11.574;2022-07-09T11:12:20;97320.44;;;32.48
48003;BMP280;33768;48.578;11.574;2022-07-09T11:15:27;97309.19;;;32.89
48003;BMP280;33768;48.578;11.574;2022-07-09T11:18:31;97308.91;;;32.43
48003;BMP280;33768;48.578;11.574;2022-07-09T11:21:35;97309.31;;;31.11
48003;BMP280;33768;48.578;11.574;2022-07-09T11:24:39;97322.28;;;30.53
48003;BMP280;33768;48.578;11.574;2022-07-09T11:27:44;97317.44;;;29.63
48003;BMP280;33768;48.578;11.574;2022-07-09T11:31:04;97316.47;;;28.73
48003;BMP280;33768;48.578;11.574;2022-07-09T11:34:10;97316.56;;;28.22
48003;BMP280;33768;48.578;11.574;2022-07-09T11:37:22;97315.66;;;27.42
48003;BMP280;33768;48.578;11.574;2022-07-09T11:40:27;97302.00;;;26.65
48003;BMP280;33768;48.578;11.574;2022-07-09T11:43:32;97321.88;;;26.57
48003;BMP280;33768;48.578;11.574;2022-07-09T11:46:36;97314.00;;;26.31
48003;BMP280;33768;48.578;11.574;2022-07-09T11:49:42;97319.31;;;25.82
48003;BMP280;33768;48.578;11.574;2022-07-09T11:52:48;97318.25;;;25.44
48003;BMP280;33768;48.578;11.574;2022-07-09T11:56:02;97319.63;;;25.22
48003;BMP280;33768;48.578;11.574;2022-07-09T11:59:08;97318.97;;;25.01
48003;BMP280;33768;48.578;11.574;2022-07-09T12:02:40;97308.19;;;24.86
48003;BMP280;33768;48.578;11.574;2022-07-09T12:05:50;97309.31;;;24.72
48003;BMP280;33768;48.578;11.574;2022-07-09T12:09:02;97297.47;;;24.62
48003;BMP280;33768;48.578;11.574;2022-07-09T12:12:07;97292.91;;;24.87
48003;BMP280;33768;48.578;11.574;2022-07-09T12:15:10;97293.41;;;25.27
48003;BMP280;33768;48.578;11.574;2022-07-09T12:18:15;97305.88;;;25.46
48003;BMP280;33768;48.578;11.574;2022-07-09T12:21:19;97284.66;;;25.64
48003;BMP280;33768;48.578;11.574;2022-07-09T12:24:24;97278.94;;;25.85
48003;BMP280;33768;48.578;11.574;2022-07-09T12:27:28;97277.84;;;26.12
48003;BMP280;33768;48.578;11.574;2022-07-09T12:30:32;97261.81;;;26.72
48003;BMP280;33768;48.578;11.574;2022-07-09T12:33:36;97262.66;;;27.10
48003;BMP280;33768;48.578;11.574;2022-07-09T12:36:41;97262.97;;;26.91
48003;BMP280;33768;48.578;11.574;2022-07-09T12:39:45;97257.72;;;26.61
48003;BMP280;33768;48.578;11.574;2022-07-09T12:42:49;97244.91;;;26.22
48003;BMP280;33768;48.578;11.574;2022-07-09T12:45:53;97258.50;;;25.60
48003;BMP280;33768;48.578;11.574;2022-07-09T12:48:57;97254.47;;;24.97
48003;BMP280;33768;48.578;11.574;2022-07-09T12:52:01;97259.84;;;24.83
48003;BMP280;33768;48.578;11.574;2022-07-09T12:55:06;97252.31;;;24.75
48003;BMP280;33768;48.578;11.574;2022-07-09T12:58:11;97249.72;;;24.67
48003;BMP280;33768;48.578;11.574;2022-07-09T13:01:15;97242.56;;;24.96
48003;BMP280;33768;48.578;11.574;2022-07-09T13:04:19;97239.97;;;25.21
48003;BMP280;33768;48.578;11.574;2022-07-09T13:07:24;97249.69;;;25.20
48003;BMP280;33768;48.578;11.574;2022-07-09T13:10:28;97235.72;;;25.20
48003;BMP280;33768;48.578;11.574;2022-07-09T13:13:32;97237.13;;;24.98
48003;BMP280;33768;48.578;11.574;2022-07-09T13:16:36;97233.94;;;24.92
48003;BMP280;33768;48.578;11.574;2022-07-09T13:19:40;97235.25;;;24.91
48003;BMP280;33768;48.578;11.574;2022-07-09T13:22:45;97228.59;;;24.96
48003;BMP280;33768;48.578;11.574;2022-07-09T13:25:49;97227.03;;;25.05
48003;BMP280;33768;48.578;11.574;2022-07-09T13:28:53;97224.50;;;25.09
48003;BMP280;33768;48.578;11.574;2022-07-09T13:31:57;97224.59;;;24.99
48003;BMP280;33768;48.578;11.574;2022-07-09T13:35:02;97224.56;;;24.88
48003;BMP280;33768;48.578;11.574;2022-07-09T13:38:07;97226.69;;;24.78
48003;BMP280;33768;48.578;11.574;2022-07-09T13:41:11;97219.13;;;24.69
48003;BMP280;33768;48.578;11.574;2022-07-09T13:44:15;97222.38;;;24.86
48003;BMP280;33768;48.578;11.574;2022-07-09T13:47:19;97214.19;;;25.11
48003;BMP280;33768;48.578;11.574;2022-07-09T13:50:23;97211.25;;;25.86
48003;BMP280;33768;48.578;11.574;2022-07-09T13:53:28;97195.94;;;26.71
48003;BMP280;33768;48.578;11.574;2022-07-09T13:56:33;97188.19;;;27.83
48003;BMP280;33768;48.578;11.574;2022-07-09T13:59:37;97195.72;;;28.47
48003;BMP280;33768;48.578;11.574;2022-07-09T14:02:41;97187.69;;;27.99
48003;BMP280;33768;48.578;11.574;2022-07-09T14:05:46;97196.28;;;27.26
48003;BMP280;33768;48.578;11.574;2022-07-09T14:08:57;97188.50;;;26.86
48003;BMP280;33768;48.578;11.574;2022-07-09T14:12:02;97187.22;;;26.65
48003;BMP280;33768;48.578;11.574;2022-07-09T14:15:06;97187.34;;;26.31
48003;BMP280;33768;48.578;11.574;2022-07-09T14:18:11;97174.50;;;25.92
48003;BMP280;33768;48.578;11.574;2022-07-09T14:21:15;97181.22;;;25.76
48003;BMP280;33768;48.578;11.574;2022-07-09T14:24:19;97186.81;;;25.76
48003;BMP280;33768;48.578;11.574;2022-07-09T14:27:23;97172.50;;;26.28
48003;BMP280;33768;48.578;11.574;2022-07-09T14:30:27;97178.66;;;26.38
48003;BMP280;33768;48.578;11.574;2022-07-09T14:33:32;97164.97;;;26.08
48003;BMP280;33768;48.578;11.574;2022-07-09T14:36:36;97168.81;;;25.78
48003;BMP280;33768;48.578;11.574;2022-07-09T14:39:40;97162.97;;;25.75
48003;BMP280;33768;48.578;11.574;2022-07-09T14:42:45;97165.41;;;25.80
48003;BMP280;33768;48.578;11.574;2022-07-09T14:45:49;97153.44;;;26.02
48003;BMP280;33768;48.578;11.574;2022-07-09T14:48:53;97170.28;;;25.91
48003;BMP280;33768;48.578;11.574;2022-07-09T14:51:58;97163.63;;;25.50
48003;BMP280;33768;48.578;11.574;2022-07-09T14:55:03;97165.59;;;24.93
48003;BMP280;33768;48.578;11.574;2022-07-09T14:58:08;97177.66;;;24.43
48003;BMP280;33768;48.578;11.574;2022-07-09T15:01:12;97172.34;;;24.26
48003;BMP280;33768;48.578;11.574;2022-07-09T15:04:17;97159.53;;;24.65
48003;BMP280;33768;48.578;11.574;2022-07-09T15:07:21;97142.56;;;25.27
48003;BMP280;33768;48.578;11.574;2022-07-09T15:10:25;97141.34;;;25.30
48003;BMP280;33768;48.578;11.574;2022-07-09T15:13:30;97152.41;;;25.28
48003;BMP280;33768;48.578;11.574;2022-07-09T15:16:34;97133.44;;;25.83
48003;BMP280;33768;48.578;11.574;2022-07-09T15:19:38;97135.41;;;25.80
48003;BMP280;33768;48.578;11.574;2022-07-09T15:22:42;97123.50;;;25.57
48003;BMP280;33768;48.578;11.574;2022-07-09T15:25:46;97118.03;;;25.37
48003;BMP280;33768;48.578;11.574;2022-07-09T15:28:50;97118.75;;;25.37
48003;BMP280;33768;48.578;11.574;2022-07-09T15:31:55;97117.66;;;25.76
48003;BMP280;33768;48.578;11.574;2022-07-09T15:34:59;97120.19;;;25.72
48003;BMP280;33768;48.578;11.574;2022-07-09T15:38:03;97110.13;;;25.44
48003;BMP280;33768;48.578;11.574;2022-07-09T15:41:07;97112.19;;;25.10
48003;BMP280;33768;48.578;11.574;2022-07-09T15:44:14;97113.16;;;25.03
48003;BMP280;33768;48.578;11.574;2022-07-09T15:47:19;97101.09;;;24.89
48003;BMP280;33768;48.578;11.574;2022-07-09T15:50:23;97093.53;;;24.69
48003;BMP280;33768;48.578;11.574;2022-07-09T15:53:27;97107.09;;;24.52
48003;BMP280;33768;48.578;11.574;2022-07-09T15:56:32;97104.84;;;24.18
48003;BMP280;33768;48.578;11.574;2022-07-09T15:59:36;97096.69;;;24.11
48003;BMP280;33768;48.578;11.574;2022-07-09T16:02:40;97100.69;;;24.08
48003;BMP280;33768;48.578;11.574;2022-07-09T16:05:44;97094.31;;;23.96
48003;BMP280;33768;48.578;11.574;2022-07-09T16:08:48;97090.44;;;23.90
48003;BMP280;33768;48.578;11.574;2022-07-09T16:11:52;97093.34;;;23.92
48003;BMP280;33768;48.578;11.574;2022-07-09T16:15:20;97088.03;;;23.96
48003;BMP280;33768;48.578;11.574;2022-07-09T16:18:24;97090.56;;;23.92
48003;BMP280;33768;48.578;11.574;2022-07-09T16:21:28;97086.06;;;23.87
48003;BMP280;33768;48.578;11.574;2022-07-09T16:24:33;97086.41;;;23.82
48003;BMP280;33768;48.578;11.574;2022-07-09T16:27:39;97083.66;;;23.93
48003;BMP280;33768;48.578;11.574;2022-07-09T16:30:44;97075.09;;;24.00
48003;BMP280;33768;48.578;11.574;2022-07-09T16:33:48;97076.63;;;23.92
48003;BMP280;33768;48.578;11.574;2022-07-09T16:36:52;97074.38;;;23.79
48003;BMP280;33768;48.578;11.574;2022-07-09T16:39:57;97070.13;;;23.78
48003;BMP280;33768;48.578;11.574;2022-07-09T16:43:03;97069.97;;;23.76
48003;BMP280;33768;48.578;11.574;2022-07-09T16:46:07;97075.56;;;23.76
48003;BMP280;33768;48.578;11.574;2022-07-09T16:49:11;97071.72;;;23.60
48003;BMP280;33768;48.578;11.574;2022-07-09T16:52:15;97081.91;;;23.47
48003;BMP280;33768;48.578;11.574;2022-07-09T16:55:19;97076.72;;;23.32
48003;BMP280;33768;48.578;11.574;2022-07-09T16:58:23;97074.44;;;23.19
48003;BMP280;33768;48.578;11.574;2022-07-09T17:01:28;97066.22;;;23.21
48003;BMP280;33768;48.578;11.574;2022-07-09T17:04:32;97066.13;;;23.10
48003;BMP280;33768;48.578;11.574;2022-07-09T17:07:36;97071.44;;;23.06
48003;BMP280;33768;48.578;11.574;2022-07-09T17:10:40;97077.63;;;22.95
48003;BMP280;33768;48.578;11.574;2022-07-09T17:13:44;97070.78;;;22.77
48003;BMP280;33768;48.578;11.574;2022-07-09T17:16:49;97070.13;;;22.58
48003;BMP280;33768;48.578;11.574;2022-07-09T17:19:53;97072.94;;;22.39
48003;BMP280;33768;48.578;11.574;2022-07-09T17:22:57;97070.75;;;22.38
48003;BMP280;33768;48.578;11.574;2022-07-09T17:26:02;97075.59;;;22.28
48003;BMP280;33768;48.578;11.574;2022-07-09T17:29:06;97074.28;;;22.29
48003;BMP280;33768;48.578;11.574;2022-07-09T17:32:11;97071.50;;;22.29
48003;BMP280;33768;48.578;11.574;2022-07-09T17:35:15;97069.59;;;22.22